createdAt,value
2023-02-02T00:01:29.526Z,3.22
2023-02-02T00:03:57.190Z,4.18
2023-02-02T00:06:26.391Z,3.58
2023-02-02T00:08:53.760Z,3.08
2023-02-02T00:11:21.192Z,3.85
2023-02-02T00:13:48.616Z,3.20
2023-02-02T00:16:30.647Z,3.35
2023-02-02T00:21:29.802Z,4.00
2023-02-02T00:23:57.110Z,2.92
2023-02-02T00:26:24.907Z,4.30
2023-02-02T00:28:52.701Z,4.10
2023-02-02T00:31:20.198Z,3.60
2023-02-02T00:33:48.788Z,3.83
2023-02-02T00:36:17.257Z,4.18
2023-02-02T00:38:44.795Z,3.38
2023-02-02T00:41:12.078Z,4.10
2023-02-02T00:43:39.339Z,3.40
2023-02-02T00:46:06.920Z,3.80
2023-02-02T00:48:34.227Z,3.85
2023-02-02T00:51:02.411Z,3.83
2023-02-02T00:53:29.757Z,3.25
2023-02-02T00:55:57.059Z,4.10
2023-02-02T00:58:24.292Z,4.32
2023-02-02T01:00:52.580Z,4.18
2023-02-02T01:03:19.809Z,3.33
2023-02-02T01:05:47.034Z,3.72
2023-02-02T01:08:14.376Z,5.30
2023-02-02T01:10:42.218Z,3.70
2023-02-02T01:13:11.458Z,2.33
2023-02-02T01:15:39.756Z,1.90
2023-02-02T01:18:08.616Z,1.70
2023-02-02T01:20:35.863Z,1.45
2023-02-02T01:23:03.116Z,1.35
2023-02-02T01:25:32.584Z,1.33
2023-02-02T01:27:59.921Z,1.35
2023-02-02T01:30:28.497Z,1.00
2023-02-02T01:32:55.897Z,1.13
2023-02-02T01:35:23.590Z,1.05
2023-02-02T01:37:51.394Z,1.10
2023-02-02T01:40:18.773Z,1.30
2023-02-02T01:42:46.032Z,1.00
2023-02-02T01:45:29.463Z,0.93
2023-02-02T01:47:59.878Z,0.90
2023-02-02T01:50:31.225Z,0.82
2023-02-02T01:53:01.356Z,0.98
2023-02-02T01:55:30.879Z,0.95
2023-02-02T01:58:00.000Z,0.80
2023-02-02T02:00:27.959Z,0.88
2023-02-02T02:03:03.469Z,0.95
2023-02-02T02:05:38.407Z,0.93
2023-02-02T02:08:21.929Z,0.98
2023-02-02T02:10:49.244Z,0.85
2023-02-02T02:13:18.047Z,0.80
2023-02-02T02:16:20.807Z,0.90
2023-02-02T02:19:08.011Z,0.80
2023-02-02T02:22:13.012Z,1.05
2023-02-02T02:25:05.007Z,0.82
2023-02-02T02:27:44.653Z,0.77
2023-02-02T02:30:30.652Z,0.80
2023-02-02T02:33:04.523Z,0.80
2023-02-02T02:36:02.823Z,0.90
2023-02-02T02:39:04.907Z,0.98
2023-02-02T02:41:36.584Z,0.90
2023-02-02T02:46:37.987Z,1.00
2023-02-02T02:49:09.881Z,0.90
2023-02-02T02:51:52.059Z,0.80
2023-02-02T02:54:34.295Z,0.70
2023-02-02T02:57:09.007Z,0.90
2023-02-02T02:59:59.207Z,0.90
2023-02-02T03:02:44.953Z,0.90
2023-02-02T03:05:33.522Z,0.88
2023-02-02T03:08:12.262Z,0.85
2023-02-02T03:10:42.931Z,0.80
2023-02-02T03:13:12.101Z,0.90
2023-02-02T03:15:44.154Z,0.90
2023-02-02T03:18:17.106Z,0.85
2023-02-02T03:20:45.927Z,0.88
2023-02-02T03:23:13.578Z,0.63
2023-02-02T03:25:41.525Z,0.80
2023-02-02T03:28:09.618Z,0.90
2023-02-02T03:30:38.840Z,0.80
2023-02-02T03:33:06.825Z,0.68
2023-02-02T03:35:34.286Z,0.80
2023-02-02T03:38:01.867Z,0.80
2023-02-02T03:40:29.749Z,0.80
2023-02-02T03:42:57.370Z,0.90
2023-02-02T03:45:28.296Z,0.80
2023-02-02T03:47:55.569Z,0.97
2023-02-02T03:50:22.841Z,0.80
2023-02-02T03:52:50.071Z,0.82
2023-02-02T03:55:17.444Z,0.80
2023-02-02T03:57:44.600Z,0.80
2023-02-02T04:00:12.269Z,0.73
2023-02-02T04:02:39.843Z,1.00
2023-02-02T04:05:07.237Z,1.10
2023-02-02T04:07:34.561Z,1.13
2023-02-02T04:10:01.788Z,0.90
2023-02-02T04:12:28.968Z,1.00
2023-02-02T04:14:56.272Z,0.80
2023-02-02T04:17:23.603Z,0.90
2023-02-02T04:19:53.824Z,1.00
2023-02-02T04:22:21.077Z,0.90
2023-02-02T04:24:48.458Z,0.88
2023-02-02T04:27:15.606Z,1.20
2023-02-02T04:29:42.888Z,0.88
2023-02-02T04:32:10.145Z,1.02
2023-02-02T04:34:37.339Z,0.90
2023-02-02T04:37:04.586Z,1.20
2023-02-02T04:39:31.842Z,1.10
2023-02-02T04:41:59.078Z,1.13
2023-02-02T04:44:26.311Z,1.70
2023-02-02T04:46:53.584Z,1.80
2023-02-02T04:49:21.893Z,1.98
2023-02-02T04:51:50.531Z,1.75
2023-02-02T04:54:18.404Z,2.15
2023-02-02T04:56:45.676Z,2.10
2023-02-02T04:59:13.208Z,2.17
2023-02-02T05:01:40.401Z,1.90
2023-02-02T05:04:07.787Z,2.10
2023-02-02T05:06:35.080Z,2.20
2023-02-02T05:09:02.390Z,2.00
2023-02-02T05:11:30.963Z,2.40
2023-02-02T05:13:58.285Z,1.75
2023-02-02T05:16:28.681Z,1.75
2023-02-02T05:18:57.892Z,1.92
2023-02-02T05:21:25.563Z,1.83
2023-02-02T05:23:52.767Z,2.45
2023-02-02T05:26:22.859Z,2.95
2023-02-02T05:28:50.245Z,2.90
2023-02-02T05:31:17.702Z,2.50
2023-02-02T05:33:45.335Z,2.60
2023-02-02T05:36:12.818Z,2.17
2023-02-02T05:38:40.052Z,2.58
2023-02-02T05:41:07.263Z,2.63
2023-02-02T05:43:34.866Z,1.90
2023-02-02T05:46:02.845Z,2.08
2023-02-02T05:48:30.162Z,2.78
2023-02-02T05:51:12.646Z,2.40
2023-02-02T05:53:39.964Z,2.50
2023-02-02T05:56:07.275Z,2.00
2023-02-02T05:58:34.704Z,2.20
2023-02-02T06:01:02.049Z,1.73
2023-02-02T06:03:29.439Z,2.00
2023-02-02T06:05:56.828Z,1.52
2023-02-02T06:08:24.045Z,1.58
2023-02-02T06:10:51.797Z,1.30
2023-02-02T06:13:19.292Z,1.50
2023-02-02T06:15:46.615Z,2.30
2023-02-02T06:18:13.873Z,2.20
2023-02-02T06:20:41.109Z,2.35
2023-02-02T06:23:08.467Z,2.22
2023-02-02T06:25:35.796Z,1.88
2023-02-02T06:28:03.133Z,2.00
2023-02-02T06:30:30.414Z,1.88
2023-02-02T06:33:00.164Z,1.95
2023-02-02T06:35:27.711Z,1.80
2023-02-02T06:37:54.976Z,2.10
2023-02-02T06:40:22.134Z,2.00
2023-02-02T06:42:55.366Z,1.98
2023-02-02T06:45:22.810Z,1.88
2023-02-02T06:47:50.226Z,2.00
2023-02-02T06:50:17.573Z,2.08
2023-02-02T06:52:49.752Z,2.42
2023-02-02T06:55:17.352Z,2.05
2023-02-02T06:57:44.587Z,3.45
2023-02-02T07:00:13.271Z,2.65
2023-02-02T07:02:40.667Z,2.85
2023-02-02T07:05:08.194Z,2.40
2023-02-02T07:07:35.647Z,2.50
2023-02-02T07:10:02.847Z,2.50
2023-02-02T07:12:30.129Z,2.90
2023-02-02T07:14:59.472Z,2.45
2023-02-02T07:17:26.671Z,2.60
2023-02-02T07:19:53.853Z,2.08
2023-02-02T07:22:21.171Z,2.60
2023-02-02T07:24:48.390Z,2.80
2023-02-02T07:27:15.581Z,2.70
2023-02-02T07:29:42.931Z,2.90
2023-02-02T07:32:11.172Z,4.90
2023-02-02T07:34:39.882Z,8.10
2023-02-02T07:37:07.140Z,3.63
2023-02-02T07:39:34.369Z,3.17
2023-02-02T07:42:01.830Z,3.10
2023-02-02T07:44:35.737Z,2.97
2023-02-02T07:47:03.025Z,3.25
2023-02-02T07:49:30.298Z,2.70
2023-02-02T07:51:58.006Z,2.60
2023-02-02T07:54:25.347Z,2.08
2023-02-02T07:56:52.590Z,2.67
2023-02-02T07:59:19.815Z,2.42
2023-02-02T08:01:47.113Z,2.03
2023-02-02T08:04:14.437Z,2.10
2023-02-02T08:06:41.969Z,2.30
2023-02-02T08:09:10.068Z,2.50
2023-02-02T08:11:38.540Z,2.75
2023-02-02T08:14:06.442Z,2.40
2023-02-02T08:16:34.513Z,3.15
2023-02-02T08:19:01.760Z,2.33
2023-02-02T08:21:29.028Z,1.90
2023-02-02T08:23:56.558Z,2.97
2023-02-02T08:26:29.084Z,2.40
2023-02-02T08:29:02.344Z,3.00
2023-02-02T08:31:43.384Z,3.38
2023-02-02T08:34:12.356Z,2.80
2023-02-02T08:36:39.781Z,2.90
2023-02-02T08:39:10.864Z,3.25
2023-02-02T08:41:38.910Z,3.00
2023-02-02T08:44:12.026Z,3.10
2023-02-02T08:46:39.818Z,2.88
2023-02-02T08:49:07.255Z,2.72
2023-02-02T08:51:34.486Z,2.58
2023-02-02T08:54:01.871Z,2.55
2023-02-02T08:56:29.275Z,3.35
2023-02-02T08:59:04.952Z,4.13
2023-02-02T09:01:33.822Z,3.85
2023-02-02T09:04:04.659Z,3.42
2023-02-02T09:06:35.135Z,4.47
2023-02-02T09:09:03.922Z,4.35
2023-02-02T09:11:31.492Z,4.30
2023-02-02T09:14:00.592Z,4.45
2023-02-02T09:16:28.450Z,4.45
2023-02-02T09:18:56.693Z,4.03
2023-02-02T09:21:24.679Z,3.90
2023-02-02T09:23:53.866Z,3.05
2023-02-02T09:26:29.783Z,3.60
2023-02-02T09:29:00.039Z,2.70
2023-02-02T09:31:27.697Z,2.53
2023-02-02T09:33:55.524Z,4.05
2023-02-02T09:36:25.033Z,3.45
2023-02-02T09:38:52.835Z,2.97
2023-02-02T09:41:38.364Z,3.50
2023-02-02T09:44:12.139Z,3.80
2023-02-02T09:46:45.453Z,3.78
2023-02-02T09:49:21.367Z,5.00
2023-02-02T09:51:56.924Z,5.25
2023-02-02T09:54:33.465Z,3.70
2023-02-02T09:57:05.817Z,3.20
2023-02-02T09:59:40.161Z,2.80
2023-02-02T10:02:32.127Z,3.03
2023-02-02T10:05:13.975Z,2.67
2023-02-02T10:07:46.788Z,2.55
2023-02-02T10:10:36.147Z,3.00
2023-02-02T10:13:18.100Z,4.82
2023-02-02T10:16:06.392Z,3.92
2023-02-02T10:18:51.894Z,4.00
2023-02-02T10:21:40.657Z,4.82
2023-02-02T10:24:21.011Z,4.20
2023-02-02T10:27:06.276Z,4.28
2023-02-02T10:29:48.902Z,4.13
2023-02-02T10:33:01.226Z,4.13
2023-02-02T10:35:41.973Z,4.18
2023-02-02T10:38:23.281Z,4.28
2023-02-02T10:41:19.988Z,4.93
2023-02-02T10:43:57.497Z,4.50
2023-02-02T10:46:42.555Z,4.10
2023-02-02T10:49:12.921Z,4.80
2023-02-02T10:51:41.380Z,5.38
2023-02-02T10:54:29.775Z,4.38
2023-02-02T10:57:01.090Z,4.35
2023-02-02T10:59:33.094Z,4.57
2023-02-02T11:05:04.769Z,4.60
2023-02-02T11:07:31.925Z,3.78
2023-02-02T11:09:59.206Z,3.63
2023-02-02T11:12:35.581Z,4.20
2023-02-02T11:15:09.502Z,4.07
2023-02-02T11:17:36.774Z,3.38
2023-02-02T11:20:39.816Z,3.55
2023-02-02T11:23:19.543Z,3.40
2023-02-02T11:26:01.114Z,4.63
2023-02-02T11:28:35.672Z,3.38
2023-02-02T11:31:03.656Z,4.00
2023-02-02T11:33:36.432Z,3.83
2023-02-02T11:36:06.788Z,4.03
2023-02-02T11:38:34.144Z,3.85
2023-02-02T11:41:05.474Z,4.40
2023-02-02T11:43:49.255Z,4.43
2023-02-02T11:46:24.524Z,4.10
2023-02-02T11:49:01.646Z,3.58
2023-02-02T11:51:30.690Z,3.83
2023-02-02T11:54:29.395Z,2.88
2023-02-02T11:56:59.766Z,3.97
2023-02-02T11:59:48.018Z,3.72
2023-02-02T12:02:28.972Z,4.15
2023-02-02T12:05:21.966Z,3.92
2023-02-02T12:07:49.925Z,4.43
2023-02-02T12:10:29.995Z,3.38
2023-02-02T12:13:12.155Z,3.92
2023-02-02T12:15:45.301Z,3.30
2023-02-02T12:18:21.582Z,3.55
2023-02-02T12:21:01.013Z,3.80
2023-02-02T12:23:46.528Z,4.65
2023-02-02T12:26:28.719Z,3.08
2023-02-02T12:29:14.712Z,2.83
2023-02-02T12:32:28.494Z,3.40
2023-02-02T12:35:09.340Z,3.85
2023-02-02T12:37:57.793Z,3.58
2023-02-02T12:40:49.924Z,3.72
2023-02-02T12:43:17.055Z,3.50
2023-02-02T12:46:41.179Z,3.45
2023-02-02T12:49:25.565Z,3.90
2023-02-02T12:52:19.475Z,3.17
2023-02-02T12:55:31.093Z,3.05
2023-02-02T12:58:19.410Z,3.22
2023-02-02T13:01:03.000Z,4.28
2023-02-02T13:04:00.467Z,3.78
2023-02-02T13:06:55.277Z,3.55
2023-02-02T13:09:35.074Z,3.80
2023-02-02T13:12:10.697Z,2.90
2023-02-02T13:14:49.799Z,3.47
2023-02-02T13:17:28.872Z,3.20
2023-02-02T13:20:04.602Z,3.60
2023-02-02T13:22:44.600Z,3.20
2023-02-02T13:25:49.119Z,2.90
2023-02-02T13:28:38.523Z,4.03
2023-02-02T13:31:11.743Z,4.05
2023-02-02T13:33:41.190Z,2.92
2023-02-02T13:36:26.014Z,3.47
2023-02-02T13:39:01.835Z,3.42
2023-02-02T13:41:31.537Z,3.25
2023-02-02T13:44:25.693Z,3.17
2023-02-02T13:47:00.445Z,3.17
2023-02-02T13:49:34.987Z,3.20
2023-02-02T13:52:08.121Z,3.42
2023-02-02T13:55:04.894Z,3.17
2023-02-02T13:58:07.115Z,3.00
2023-02-02T14:00:38.096Z,2.85
2023-02-02T14:03:38.604Z,3.27
2023-02-02T14:06:15.290Z,3.00
2023-02-02T14:08:56.498Z,3.25
2023-02-02T14:11:31.906Z,3.53
2023-02-02T14:14:35.365Z,3.80
2023-02-02T14:17:06.412Z,3.50
2023-02-02T14:19:33.604Z,4.57
2023-02-02T14:22:14.517Z,3.60
2023-02-02T14:24:44.308Z,2.97
2023-02-02T14:27:11.639Z,3.75
2023-02-02T14:29:46.822Z,3.38
2023-02-02T14:32:29.451Z,2.97
2023-02-02T14:35:13.852Z,3.60
2023-02-02T14:38:19.298Z,3.05
2023-02-02T14:40:59.446Z,2.83
2023-02-02T14:43:49.958Z,2.55
2023-02-02T14:46:34.040Z,3.20
2023-02-02T14:49:01.266Z,3.00
2023-02-02T14:51:32.032Z,3.08
2023-02-02T14:54:02.725Z,3.55
2023-02-02T14:56:42.665Z,2.95
2023-02-02T14:59:22.353Z,2.80
2023-02-02T15:02:09.901Z,2.80
2023-02-02T15:04:37.916Z,2.97
2023-02-02T15:07:23.233Z,2.58
2023-02-02T15:09:52.088Z,2.88
2023-02-02T15:13:00.334Z,2.33
2023-02-02T15:15:30.273Z,1.92
2023-02-02T15:18:04.737Z,2.03
2023-02-02T15:20:43.096Z,1.83
2023-02-02T15:23:19.264Z,2.03
2023-02-02T15:26:06.848Z,2.05
2023-02-02T15:28:53.040Z,2.15
2023-02-02T15:31:43.963Z,2.13
2023-02-02T15:34:29.273Z,2.03
2023-02-02T15:37:00.977Z,1.73
2023-02-02T15:39:47.467Z,1.85
2023-02-02T15:42:40.872Z,1.88
2023-02-02T15:45:28.169Z,1.90
2023-02-02T15:47:57.804Z,3.95
2023-02-02T15:50:27.074Z,2.35
2023-02-02T15:52:55.969Z,2.60
2023-02-02T15:55:33.945Z,2.35
2023-02-02T15:58:04.223Z,2.05
2023-02-02T16:00:34.645Z,2.28
2023-02-02T16:03:23.609Z,2.45
2023-02-02T16:05:54.734Z,2.42
2023-02-02T16:08:30.185Z,2.63
2023-02-02T16:11:16.425Z,3.03
2023-02-02T16:14:17.739Z,2.78
2023-02-02T16:16:47.324Z,2.47
2023-02-02T16:19:22.361Z,2.50
2023-02-02T16:22:02.273Z,2.67
2023-02-02T16:24:36.509Z,2.67
2023-02-02T16:27:07.598Z,2.80
2023-02-02T16:29:35.978Z,3.67
2023-02-02T16:32:06.444Z,3.00
2023-02-02T16:34:40.464Z,3.63
2023-02-02T16:37:14.305Z,3.45
2023-02-02T16:39:43.224Z,3.95
2023-02-02T16:42:21.843Z,4.88
2023-02-02T16:44:50.454Z,4.85
2023-02-02T16:47:27.658Z,4.93
2023-02-02T16:50:11.937Z,6.32
2023-02-02T16:52:54.541Z,6.38
2023-02-02T16:55:24.443Z,6.35
2023-02-02T16:57:53.275Z,6.20
2023-02-02T17:00:24.838Z,6.57
2023-02-02T17:02:59.451Z,5.53
2023-02-02T17:05:36.220Z,6.30
2023-02-02T17:08:07.719Z,6.13
2023-02-02T17:10:45.234Z,6.25
2023-02-02T17:13:33.267Z,5.90
2023-02-02T17:16:01.891Z,6.20
2023-02-02T17:18:30.278Z,7.38
2023-02-02T17:21:04.889Z,6.63
2023-02-02T17:23:33.203Z,7.25
2023-02-02T17:26:01.170Z,7.07
2023-02-02T17:28:30.350Z,6.13
2023-02-02T17:31:14.897Z,6.85
2023-02-02T17:33:46.097Z,6.88
2023-02-02T17:36:14.220Z,6.97
2023-02-02T17:38:41.757Z,6.57
2023-02-02T17:41:12.747Z,5.90
2023-02-02T17:43:40.064Z,6.18
2023-02-02T17:46:13.330Z,6.50
2023-02-02T17:48:40.798Z,6.43
2023-02-02T17:51:16.290Z,7.07
2023-02-02T17:53:44.692Z,7.45
2023-02-02T17:56:11.996Z,8.90
2023-02-02T17:58:39.214Z,8.18
2023-02-02T18:01:07.467Z,8.32
2023-02-02T18:03:37.621Z,8.52
2023-02-02T18:06:05.242Z,8.98
2023-02-02T18:08:33.562Z,8.10
2023-02-02T18:11:01.077Z,8.77
2023-02-02T18:13:29.195Z,8.90
2023-02-02T18:15:56.618Z,9.13
2023-02-02T18:18:24.126Z,8.18
2023-02-02T18:20:51.520Z,8.23
2023-02-02T18:23:19.860Z,8.43
2023-02-02T18:25:47.271Z,9.20
2023-02-02T18:28:17.116Z,10.10
2023-02-02T18:30:45.874Z,12.50
2023-02-02T18:33:14.326Z,9.93
2023-02-02T18:35:43.410Z,8.70
2023-02-02T18:38:11.060Z,8.25
2023-02-02T18:40:38.480Z,8.60
2023-02-02T18:43:05.752Z,10.57
2023-02-02T18:45:33.125Z,11.02
2023-02-02T18:48:00.312Z,7.55
2023-02-02T18:50:27.611Z,7.30
2023-02-02T18:52:57.130Z,9.05
2023-02-02T18:55:24.955Z,10.40
2023-02-02T18:57:52.851Z,10.25
2023-02-02T19:00:22.162Z,7.93
2023-02-02T19:02:49.554Z,7.60
2023-02-02T19:05:35.284Z,8.80
2023-02-02T19:08:04.153Z,10.00
2023-02-02T19:10:31.728Z,20.58
2023-02-02T19:13:30.435Z,17.23
2023-02-02T19:16:00.619Z,9.00
2023-02-02T19:18:31.602Z,8.10
2023-02-02T19:20:58.894Z,7.57
2023-02-02T19:23:32.247Z,7.30
2023-02-02T19:25:59.906Z,7.10
2023-02-02T19:28:31.561Z,6.53
2023-02-02T19:31:02.022Z,7.03
2023-02-02T19:33:42.854Z,6.88
2023-02-02T19:36:25.114Z,9.70
2023-02-02T19:38:58.299Z,8.20
2023-02-02T19:41:26.329Z,8.43
2023-02-02T19:43:59.781Z,8.23
2023-02-02T19:46:30.549Z,9.85
2023-02-02T19:49:20.590Z,11.43
2023-02-02T19:51:53.701Z,10.77
2023-02-02T19:54:26.141Z,9.88
2023-02-02T19:56:59.795Z,9.60
2023-02-02T19:59:33.722Z,10.63
2023-02-02T20:02:22.927Z,10.02
2023-02-02T20:05:02.014Z,10.13
2023-02-02T20:07:30.287Z,10.18
2023-02-02T20:10:11.475Z,10.23
2023-02-02T20:12:38.680Z,11.30
2023-02-02T20:15:28.715Z,13.85
2023-02-02T20:17:58.398Z,13.45
2023-02-02T20:20:34.823Z,13.00
2023-02-02T20:23:02.420Z,13.85
2023-02-02T20:25:34.307Z,13.23
2023-02-02T20:30:35.536Z,13.02
2023-02-02T20:33:04.791Z,12.77
2023-02-02T20:35:37.341Z,11.60
2023-02-02T20:38:21.523Z,13.38
2023-02-02T20:40:51.382Z,13.15
2023-02-02T20:43:19.112Z,14.05
2023-02-02T20:45:47.802Z,11.35
2023-02-02T20:48:18.450Z,11.90
2023-02-02T20:50:49.905Z,11.52
2023-02-02T20:53:17.580Z,11.50
2023-02-02T20:55:45.247Z,8.48
2023-02-02T20:58:13.058Z,7.18
2023-02-02T21:00:40.708Z,6.65
2023-02-02T21:03:08.135Z,6.10
2023-02-02T21:05:35.481Z,6.10
2023-02-02T21:08:02.798Z,5.38
2023-02-02T21:10:30.122Z,5.53
2023-02-02T21:12:57.554Z,5.35
2023-02-02T21:15:26.444Z,5.20
2023-02-02T21:17:54.113Z,5.70
2023-02-02T21:20:21.926Z,5.00
2023-02-02T21:22:49.805Z,5.30
2023-02-02T21:25:17.233Z,4.57
2023-02-02T21:27:44.662Z,4.05
2023-02-02T21:30:14.186Z,4.45
2023-02-02T21:32:41.512Z,4.80
2023-02-02T21:35:09.628Z,5.10
2023-02-02T21:37:37.934Z,4.82
2023-02-02T21:40:28.974Z,4.78
2023-02-02T21:42:59.812Z,5.18
2023-02-02T21:45:38.707Z,4.85
2023-02-02T21:48:21.799Z,4.82
2023-02-02T21:50:49.535Z,4.18
2023-02-02T21:53:25.151Z,4.20
2023-02-02T21:55:55.954Z,4.15
2023-02-02T21:58:28.408Z,4.68
2023-02-02T22:01:00.338Z,4.60
2023-02-02T22:03:28.106Z,4.43
2023-02-02T22:06:26.231Z,4.80
2023-02-02T22:09:07.275Z,4.40
2023-02-02T22:11:59.443Z,4.40
2023-02-02T22:14:45.245Z,3.97
2023-02-02T22:17:26.358Z,4.22
2023-02-02T22:20:17.707Z,4.50
2023-02-02T22:22:47.560Z,5.27
2023-02-02T22:25:18.508Z,4.57
2023-02-02T22:27:54.314Z,3.92
2023-02-02T22:30:39.402Z,4.57
2023-02-02T22:33:08.935Z,4.28
2023-02-02T22:35:36.918Z,5.15
2023-02-02T22:38:06.244Z,4.93
2023-02-02T22:40:38.062Z,5.13
2023-02-02T22:43:08.282Z,5.15
2023-02-02T22:45:42.119Z,5.30
2023-02-02T22:48:10.068Z,4.88
2023-02-02T22:50:41.086Z,5.10
2023-02-02T22:53:09.587Z,5.40
2023-02-02T22:55:37.977Z,5.07
2023-02-02T22:58:05.789Z,5.68
2023-02-02T23:00:33.958Z,5.68
2023-02-02T23:03:01.952Z,5.50
2023-02-02T23:05:30.530Z,5.35
2023-02-02T23:07:57.896Z,5.95
2023-02-02T23:10:27.859Z,5.35
2023-02-02T23:12:58.640Z,5.72
2023-02-02T23:15:26.469Z,5.47
2023-02-02T23:17:54.429Z,4.97
2023-02-02T23:20:21.991Z,5.45
2023-02-02T23:22:50.250Z,6.30
2023-02-02T23:25:18.949Z,5.28
2023-02-02T23:27:46.459Z,5.50
2023-02-02T23:30:14.893Z,5.50
2023-02-02T23:32:42.485Z,5.80
2023-02-02T23:35:11.118Z,6.00
2023-02-02T23:37:38.949Z,5.60
2023-02-02T23:40:07.121Z,6.15
2023-02-02T23:42:37.681Z,5.10
2023-02-02T23:45:05.814Z,4.88
2023-02-02T23:47:34.624Z,5.82
2023-02-02T23:50:06.536Z,4.88
2023-02-02T23:55:02.636Z,4.57
2023-02-02T23:57:30.300Z,4.60
2023-02-02T23:59:57.514Z,4.95
